createdAt,value
2023-02-27T00:00:57.110Z,98133.84
2023-02-27T00:01:58.846Z,98138.91
2023-02-27T00:03:00.616Z,98128.44
2023-02-27T00:04:02.538Z,98123.38
2023-02-27T00:05:04.416Z,98113.56
2023-02-27T00:06:06.368Z,98118.44
2023-02-27T00:07:08.917Z,98123.78
2023-02-27T00:08:10.624Z,98114.97
2023-02-27T00:09:12.414Z,98086.44
2023-02-27T00:10:14.378Z,98113.19
2023-02-27T00:11:16.231Z,98108.94
2023-02-27T00:12:18.071Z,98118.03
2023-02-27T00:13:19.921Z,98118.03
2023-02-27T00:14:22.567Z,98124.66
2023-02-27T00:15:24.659Z,98116.34
2023-02-27T00:16:26.508Z,98123.38
2023-02-27T00:17:29.873Z,98114.50
2023-02-27T00:18:31.710Z,98107.59
2023-02-27T00:19:33.460Z,98100.25
2023-02-27T00:20:38.355Z,98095.72
2023-02-27T00:21:40.291Z,98094.13
2023-02-27T00:22:43.110Z,98090.69
2023-02-27T00:23:44.803Z,98079.00
2023-02-27T00:24:46.535Z,98081.84
2023-02-27T00:25:48.309Z,98065.59
2023-02-27T00:26:50.013Z,98077.31
2023-02-27T00:27:53.063Z,98087.16
2023-02-27T00:28:54.784Z,98097.53
2023-02-27T00:29:56.484Z,98095.13
2023-02-27T00:30:58.772Z,98100.56
2023-02-27T00:32:00.647Z,98101.56
2023-02-27T00:33:03.648Z,98095.03
2023-02-27T00:34:05.338Z,98098.19
2023-02-27T00:35:09.177Z,98102.47
2023-02-27T00:36:10.978Z,98103.09
2023-02-27T00:37:12.770Z,98102.09
2023-02-27T00:38:14.470Z,98097.81
2023-02-27T00:39:16.161Z,98097.09
2023-02-27T00:40:18.265Z,98106.19
2023-02-27T00:41:20.022Z,98103.06
2023-02-27T00:42:22.280Z,98105.44
2023-02-27T00:43:24.026Z,98078.09
2023-02-27T00:44:25.728Z,98112.31
2023-02-27T00:45:27.591Z,98116.81
2023-02-27T00:46:29.385Z,98121.56
2023-02-27T00:47:31.345Z,98122.34
2023-02-27T00:48:33.308Z,98119.28
2023-02-27T00:49:35.010Z,98124.84
2023-02-27T00:50:37.214Z,98117.16
2023-02-27T00:51:39.053Z,98110.69
2023-02-27T00:52:41.268Z,98117.06
2023-02-27T00:53:42.956Z,98125.34
2023-02-27T00:54:44.720Z,98112.56
2023-02-27T00:55:46.508Z,98106.66
2023-02-27T00:56:48.212Z,98119.44
2023-02-27T00:57:50.061Z,98117.97
2023-02-27T00:58:51.800Z,98129.91
2023-02-27T00:59:53.505Z,98129.19
2023-02-27T01:00:55.290Z,98122.91
2023-02-27T01:01:57.051Z,98120.28
2023-02-27T01:02:58.764Z,98126.63
2023-02-27T01:04:01.080Z,98125.78
2023-02-27T01:05:03.529Z,98126.88
2023-02-27T01:06:05.696Z,98139.91
2023-02-27T01:07:08.334Z,98133.91
2023-02-27T01:08:10.050Z,98130.66
2023-02-27T01:09:11.824Z,98147.13
2023-02-27T01:10:13.867Z,98148.19
2023-02-27T01:11:15.608Z,98143.28
2023-02-27T01:12:17.341Z,98144.97
2023-02-27T01:13:19.165Z,98148.19
2023-02-27T01:14:20.912Z,98143.97
2023-02-27T01:15:22.684Z,98140.03
2023-02-27T01:16:24.579Z,98132.88
2023-02-27T01:17:26.380Z,98130.78
2023-02-27T01:18:28.089Z,98140.91
2023-02-27T01:19:29.843Z,98142.00
2023-02-27T01:20:31.531Z,98139.91
2023-02-27T01:21:33.238Z,98142.53
2023-02-27T01:22:35.285Z,98145.16
2023-02-27T01:23:37.049Z,98137.00
2023-02-27T01:24:38.841Z,98137.94
2023-02-27T01:25:40.551Z,98145.31
2023-02-27T01:26:42.437Z,98145.38
2023-02-27T01:27:44.230Z,98151.25
2023-02-27T01:28:46.329Z,98157.31
2023-02-27T01:29:48.014Z,98153.41
2023-02-27T01:30:49.770Z,98150.28
2023-02-27T01:31:51.684Z,98141.88
2023-02-27T01:32:53.502Z,98131.09
2023-02-27T01:33:55.290Z,98128.50
2023-02-27T01:34:56.995Z,98119.69
2023-02-27T01:35:58.713Z,98130.28
2023-02-27T01:37:00.437Z,98141.94
2023-02-27T01:38:02.197Z,98150.31
2023-02-27T01:39:04.100Z,98141.09
2023-02-27T01:40:07.379Z,98140.84
2023-02-27T01:41:09.174Z,98146.94
2023-02-27T01:42:23.573Z,98144.53
2023-02-27T01:43:25.343Z,98142.31
2023-02-27T01:44:30.201Z,98149.84
2023-02-27T01:45:39.511Z,98144.63
2023-02-27T01:46:42.202Z,98143.16
2023-02-27T01:47:48.477Z,98143.13
2023-02-27T01:48:54.468Z,98142.13
2023-02-27T01:49:56.198Z,98132.84
2023-02-27T01:51:19.229Z,98139.00
2023-02-27T01:52:21.332Z,98150.31
2023-02-27T01:53:26.703Z,98150.88
2023-02-27T01:54:29.972Z,98156.84
2023-02-27T01:55:35.249Z,98192.75
2023-02-27T01:56:37.123Z,98211.06
2023-02-27T01:57:41.051Z,98210.28
2023-02-27T01:58:44.828Z,98203.03
2023-02-27T01:59:46.670Z,98207.22
2023-02-27T02:00:49.136Z,98205.53
2023-02-27T02:01:51.463Z,98212.13
2023-02-27T02:03:17.293Z,98214.53
2023-02-27T02:04:24.167Z,98204.00
2023-02-27T02:05:26.892Z,98211.09
2023-02-27T02:06:31.820Z,98214.63
2023-02-27T02:07:35.079Z,98218.72
2023-02-27T02:08:46.633Z,98226.84
2023-02-27T02:09:59.372Z,98214.69
2023-02-27T02:11:01.304Z,98219.19
2023-02-27T02:12:04.941Z,98216.09
2023-02-27T02:13:07.752Z,98210.13
2023-02-27T02:14:11.055Z,98207.38
2023-02-27T02:15:13.088Z,98208.69
2023-02-27T02:16:23.747Z,98216.06
2023-02-27T02:18:04.437Z,98209.03
2023-02-27T02:19:44.067Z,98201.31
2023-02-27T02:21:18.903Z,98206.03
2023-02-27T02:22:32.607Z,98214.78
2023-02-27T02:23:52.326Z,98217.66
2023-02-27T02:25:12.377Z,98219.81
2023-02-27T02:26:19.943Z,98213.59
2023-02-27T02:27:33.616Z,98211.06
2023-02-27T02:29:12.682Z,98214.81
2023-02-27T02:30:32.956Z,98210.09
2023-02-27T02:32:04.389Z,98205.00
2023-02-27T02:33:22.367Z,98204.19
2023-02-27T02:35:06.358Z,98210.56
2023-02-27T02:36:38.559Z,98199.75
2023-02-27T02:38:20.922Z,98216.84
2023-02-27T02:39:28.757Z,98212.94
2023-02-27T02:40:37.646Z,98220.56
2023-02-27T02:41:49.493Z,98207.03
2023-02-27T02:43:11.177Z,98222.69
2023-02-27T02:44:19.318Z,98222.00
2023-02-27T02:45:32.203Z,98220.16
2023-02-27T02:46:54.702Z,98225.22
2023-02-27T02:48:02.730Z,98219.34
2023-02-27T02:49:41.632Z,98224.28
2023-02-27T02:50:57.541Z,98224.59
2023-02-27T02:52:23.288Z,98223.66
2023-02-27T02:53:37.058Z,98227.69
2023-02-27T02:54:47.401Z,98237.72
2023-02-27T02:55:57.141Z,98233.69
2023-02-27T02:57:33.714Z,98239.22
2023-02-27T02:58:48.976Z,98235.88
2023-02-27T02:59:57.143Z,98240.44
2023-02-27T03:01:04.918Z,98233.63
2023-02-27T03:02:10.921Z,98236.63
2023-02-27T03:03:20.424Z,98237.66
2023-02-27T03:04:28.087Z,98240.09
2023-02-27T03:05:35.446Z,98244.88
2023-02-27T03:06:43.376Z,98244.66
2023-02-27T03:07:54.066Z,98234.69
2023-02-27T03:09:03.139Z,98248.69
2023-02-27T03:10:12.126Z,98237.50
2023-02-27T03:11:14.275Z,98240.72
2023-02-27T03:12:20.148Z,98253.75
2023-02-27T03:13:46.450Z,98255.69
2023-02-27T03:15:03.082Z,98261.00
2023-02-27T03:16:15.686Z,98259.78
2023-02-27T03:17:25.048Z,98267.63
2023-02-27T03:18:34.998Z,98258.16
2023-02-27T03:20:03.844Z,98265.63
2023-02-27T03:21:12.528Z,98258.72
2023-02-27T03:22:18.868Z,98257.69
2023-02-27T03:23:28.391Z,98246.44
2023-02-27T03:24:35.306Z,98262.34
2023-02-27T03:25:38.519Z,98270.16
2023-02-27T03:26:44.772Z,98272.47
2023-02-27T03:27:58.915Z,98282.78
2023-02-27T03:29:06.636Z,98287.19
2023-02-27T03:30:10.853Z,98295.19
2023-02-27T03:31:27.204Z,98298.44
2023-02-27T03:32:42.740Z,98309.81
2023-02-27T03:34:02.178Z,98316.16
2023-02-27T03:35:07.306Z,98320.59
2023-02-27T03:36:47.229Z,98325.44
2023-02-27T03:38:01.583Z,98324.88
2023-02-27T03:39:41.808Z,98320.69
2023-02-27T03:40:59.116Z,98326.34
2023-02-27T03:42:09.869Z,98334.50
2023-02-27T03:43:30.346Z,98337.97
2023-02-27T03:44:42.018Z,98344.19
2023-02-27T03:45:54.799Z,98354.69
2023-02-27T03:46:56.866Z,98363.22
2023-02-27T03:47:59.102Z,98358.16
2023-02-27T03:49:00.853Z,98377.53
2023-02-27T03:50:02.622Z,98371.56
2023-02-27T03:51:04.818Z,98364.31
2023-02-27T03:52:06.749Z,98360.84
2023-02-27T03:53:21.133Z,98351.16
2023-02-27T03:54:33.745Z,98342.84
2023-02-27T03:55:39.873Z,98347.44
2023-02-27T03:56:47.999Z,98357.31
2023-02-27T03:57:51.134Z,98361.72
2023-02-27T03:58:53.836Z,98371.88
2023-02-27T03:59:55.762Z,98367.84
2023-02-27T04:00:57.636Z,98382.47
2023-02-27T04:02:01.068Z,98379.72
2023-02-27T04:03:05.133Z,98376.44
2023-02-27T04:04:13.425Z,98375.03
2023-02-27T04:05:15.160Z,98376.75
2023-02-27T04:06:35.939Z,98373.66
2023-02-27T04:07:52.645Z,98378.59
2023-02-27T04:08:54.287Z,98375.78
2023-02-27T04:10:07.941Z,98377.72
2023-02-27T04:11:19.209Z,98380.53
2023-02-27T04:12:24.083Z,98388.97
2023-02-27T04:13:48.706Z,98397.72
2023-02-27T04:15:18.311Z,98396.88
2023-02-27T04:16:38.179Z,98394.78
2023-02-27T04:18:32.268Z,98400.09
2023-02-27T04:19:43.582Z,98401.47
2023-02-27T04:20:49.717Z,98405.00
2023-02-27T04:22:35.222Z,98410.22
2023-02-27T04:23:49.046Z,98411.13
2023-02-27T04:25:13.504Z,98415.38
2023-02-27T04:26:24.248Z,98420.03
2023-02-27T04:27:43.963Z,98429.69
2023-02-27T04:28:48.701Z,98426.34
2023-02-27T04:30:01.441Z,98409.28
2023-02-27T04:31:27.675Z,98415.38
2023-02-27T04:32:42.038Z,98423.09
2023-02-27T04:33:52.052Z,98433.91
2023-02-27T04:34:58.664Z,98432.97
2023-02-27T04:36:08.453Z,98450.19
2023-02-27T04:37:43.538Z,98449.97
2023-02-27T04:38:51.684Z,98457.78
2023-02-27T04:39:56.322Z,98460.31
2023-02-27T04:41:00.362Z,98433.38
2023-02-27T04:42:06.629Z,98469.94
2023-02-27T04:43:11.856Z,98476.63
2023-02-27T04:44:15.760Z,98483.09
2023-02-27T04:45:22.205Z,98496.66
2023-02-27T04:46:27.900Z,98535.63
2023-02-27T04:47:34.882Z,98568.84
2023-02-27T04:48:42.992Z,98569.31
2023-02-27T04:49:49.078Z,98597.41
2023-02-27T04:51:18.583Z,98606.19
2023-02-27T04:52:31.855Z,98591.00
2023-02-27T04:53:53.025Z,98596.09
2023-02-27T04:54:58.377Z,98619.25
2023-02-27T04:56:06.981Z,98615.69
2023-02-27T04:57:14.254Z,98617.06
2023-02-27T04:58:23.350Z,98625.72
2023-02-27T04:59:45.097Z,98628.03
2023-02-27T05:00:53.670Z,98643.50
2023-02-27T05:02:16.231Z,98665.16
2023-02-27T05:03:23.099Z,98670.22
2023-02-27T05:04:29.356Z,98662.03
2023-02-27T05:05:34.060Z,98667.34
2023-02-27T05:06:37.976Z,98644.13
2023-02-27T05:07:50.661Z,98653.91
2023-02-27T05:09:28.918Z,98663.94
2023-02-27T05:10:35.290Z,98661.78
2023-02-27T05:11:45.295Z,98663.47
2023-02-27T05:13:15.316Z,98675.34
2023-02-27T05:14:23.300Z,98676.38
2023-02-27T05:15:36.564Z,98680.97
2023-02-27T05:16:50.245Z,98672.88
2023-02-27T05:18:03.875Z,98689.81
2023-02-27T05:19:06.919Z,98681.28
2023-02-27T05:20:09.534Z,98684.19
2023-02-27T05:21:29.440Z,98680.47
2023-02-27T05:22:54.425Z,98692.78
2023-02-27T05:24:29.710Z,98681.34
2023-02-27T05:25:41.428Z,98680.31
2023-02-27T05:27:18.047Z,98669.47
2023-02-27T05:28:51.730Z,98666.00
2023-02-27T05:30:01.708Z,98657.44
2023-02-27T05:31:13.827Z,98665.97
2023-02-27T05:32:54.053Z,98660.50
2023-02-27T05:34:11.307Z,98641.56
2023-02-27T05:35:20.444Z,98657.22
2023-02-27T05:36:32.967Z,98650.75
2023-02-27T05:37:45.372Z,98647.63
2023-02-27T05:38:55.524Z,98660.41
2023-02-27T05:39:58.962Z,98654.75
2023-02-27T05:41:10.431Z,98650.34
2023-02-27T05:42:19.795Z,98647.56
2023-02-27T05:43:35.861Z,98636.31
2023-02-27T05:44:46.337Z,98631.34
2023-02-27T05:45:53.453Z,98643.56
2023-02-27T05:47:08.831Z,98641.72
2023-02-27T05:48:19.845Z,98623.88
2023-02-27T05:49:29.279Z,98606.19
2023-02-27T05:50:34.168Z,98611.75
2023-02-27T05:51:37.673Z,98600.63
2023-02-27T05:52:41.644Z,98612.44
2023-02-27T05:53:48.668Z,98602.44
2023-02-27T05:55:04.004Z,98609.03
2023-02-27T05:56:08.536Z,98587.28
2023-02-27T05:57:14.836Z,98598.97
2023-02-27T05:58:22.963Z,98594.59
2023-02-27T05:59:52.319Z,98586.84
2023-02-27T06:00:56.005Z,98584.94
2023-02-27T06:01:57.851Z,98591.97
2023-02-27T06:02:59.666Z,98583.13
2023-02-27T06:04:01.865Z,98587.50
2023-02-27T06:05:04.237Z,98588.09
2023-02-27T06:06:11.372Z,98590.44
2023-02-27T06:07:16.327Z,98573.72
2023-02-27T06:08:18.024Z,98568.06
2023-02-27T06:09:20.653Z,98574.63
2023-02-27T06:10:22.424Z,98569.91
2023-02-27T06:11:24.121Z,98575.56
2023-02-27T06:12:25.889Z,98586.78
2023-02-27T06:13:27.570Z,98603.72
2023-02-27T06:14:29.330Z,98610.84
2023-02-27T06:15:31.048Z,98613.88
2023-02-27T06:16:33.100Z,98632.88
2023-02-27T06:17:34.967Z,98642.00
2023-02-27T06:18:36.679Z,98653.06
2023-02-27T06:19:38.385Z,98663.75
2023-02-27T06:20:42.467Z,98669.31
2023-02-27T06:21:44.295Z,98655.94
2023-02-27T06:22:46.104Z,98659.28
2023-02-27T06:23:47.837Z,98647.41
2023-02-27T06:24:49.544Z,98645.69
2023-02-27T06:25:51.255Z,98642.56
2023-02-27T06:26:53.511Z,98647.84
2023-02-27T06:27:55.242Z,98644.06
2023-02-27T06:28:56.980Z,98647.31
2023-02-27T06:29:58.754Z,98653.28
2023-02-27T06:31:00.482Z,98649.16
2023-02-27T06:32:02.233Z,98657.09
2023-02-27T06:33:04.120Z,98662.19
2023-02-27T06:34:05.880Z,98665.72
2023-02-27T06:35:08.072Z,98667.34
2023-02-27T06:36:09.856Z,98651.78
2023-02-27T06:37:11.614Z,98664.94
2023-02-27T06:38:13.315Z,98662.06
2023-02-27T06:39:15.217Z,98641.88
2023-02-27T06:40:17.159Z,98631.84
2023-02-27T06:41:19.313Z,98646.25
2023-02-27T06:42:21.370Z,98661.47
2023-02-27T06:43:23.294Z,98671.63
2023-02-27T06:44:24.988Z,98671.72
2023-02-27T06:45:26.702Z,98679.59
2023-02-27T06:46:28.811Z,98677.28
2023-02-27T06:47:30.745Z,98694.69
2023-02-27T06:48:33.516Z,98702.28
2023-02-27T06:49:35.239Z,98701.97
2023-02-27T06:50:37.056Z,98701.84
2023-02-27T06:51:39.398Z,98692.03
2023-02-27T06:52:42.100Z,98682.44
2023-02-27T06:53:43.844Z,98682.00
2023-02-27T06:54:45.583Z,98675.75
2023-02-27T06:55:47.356Z,98677.03
2023-02-27T06:56:50.445Z,98676.88
2023-02-27T06:57:52.328Z,98684.41
2023-02-27T06:58:54.067Z,98679.56
2023-02-27T06:59:55.807Z,98679.44
2023-02-27T07:01:00.323Z,98679.00
2023-02-27T07:02:02.074Z,98689.97
2023-02-27T07:03:04.737Z,98690.06
2023-02-27T07:04:06.508Z,98695.03
2023-02-27T07:05:08.807Z,98698.38
2023-02-27T07:06:12.225Z,98709.66
2023-02-27T07:07:33.230Z,98706.69
2023-02-27T07:08:36.680Z,98711.16
2023-02-27T07:09:38.434Z,98716.34
2023-02-27T07:10:42.972Z,98717.22
2023-02-27T07:11:44.700Z,98709.72
2023-02-27T07:12:46.431Z,98714.88
2023-02-27T07:13:48.142Z,98708.34
2023-02-27T07:14:49.913Z,98717.88
2023-02-27T07:15:52.485Z,98719.09
2023-02-27T07:16:54.269Z,98717.38
2023-02-27T07:17:55.992Z,98715.75
2023-02-27T07:18:57.765Z,98716.69
2023-02-27T07:19:59.668Z,98710.78
2023-02-27T07:21:01.389Z,98710.50
2023-02-27T07:22:03.872Z,98711.84
2023-02-27T07:23:05.620Z,98695.25
2023-02-27T07:24:07.580Z,98701.44
2023-02-27T07:25:09.826Z,98716.56
2023-02-27T07:26:11.564Z,98715.50
2023-02-27T07:27:13.292Z,98714.22
2023-02-27T07:28:15.423Z,98727.94
2023-02-27T07:29:17.340Z,98726.50
2023-02-27T07:30:19.721Z,98715.91
2023-02-27T07:31:21.527Z,98716.09
2023-02-27T07:32:23.525Z,98726.16
2023-02-27T07:33:25.787Z,98731.31
2023-02-27T07:34:27.487Z,98729.47
2023-02-27T07:35:29.360Z,98730.59
2023-02-27T07:36:31.649Z,98732.34
2023-02-27T07:37:33.360Z,98720.19
2023-02-27T07:38:35.075Z,98719.69
2023-02-27T07:39:36.832Z,98722.44
2023-02-27T07:40:38.577Z,98720.59
2023-02-27T07:41:40.296Z,98715.75
2023-02-27T07:42:42.261Z,98722.38
2023-02-27T07:43:43.979Z,98708.38
2023-02-27T07:44:45.671Z,98722.69
2023-02-27T07:45:47.529Z,98723.53
2023-02-27T07:46:49.352Z,98728.44
2023-02-27T07:47:51.149Z,98727.50
2023-02-27T07:48:53.764Z,98732.00
2023-02-27T07:49:55.453Z,98738.94
2023-02-27T07:50:57.595Z,98739.28
2023-02-27T07:51:59.287Z,98733.75
2023-02-27T07:53:00.999Z,98741.25
2023-02-27T07:54:02.702Z,98742.78
2023-02-27T07:55:04.635Z,98749.72
2023-02-27T07:56:06.603Z,98750.69
2023-02-27T07:57:08.431Z,98742.19
2023-02-27T07:58:10.156Z,98759.69
2023-02-27T07:59:11.863Z,98750.47
2023-02-27T08:00:14.447Z,98753.94
2023-02-27T08:01:16.164Z,98755.94
2023-02-27T08:02:17.968Z,98744.22
2023-02-27T08:03:19.747Z,98744.09
2023-02-27T08:04:21.606Z,98748.97
2023-02-27T08:05:23.394Z,98733.53
2023-02-27T08:06:25.592Z,98750.28
2023-02-27T08:07:27.610Z,98748.81
2023-02-27T08:08:29.860Z,98758.03
2023-02-27T08:09:32.050Z,98756.00
2023-02-27T08:10:33.775Z,98758.75
2023-02-27T08:11:35.546Z,98763.53
2023-02-27T08:12:37.364Z,98763.59
2023-02-27T08:14:08.901Z,98765.94
2023-02-27T08:15:00.786Z,98764.00
2023-02-27T08:16:02.537Z,98764.72
2023-02-27T08:17:04.351Z,98767.41
2023-02-27T08:18:06.163Z,98754.31
2023-02-27T08:19:08.403Z,98757.78
2023-02-27T08:20:14.243Z,98773.69
2023-02-27T08:21:16.054Z,98768.13
2023-02-27T08:22:17.973Z,98767.38
2023-02-27T08:23:19.660Z,98772.88
2023-02-27T08:24:21.832Z,98771.19
2023-02-27T08:25:23.622Z,98779.59
2023-02-27T08:26:25.710Z,98772.50
2023-02-27T08:27:27.717Z,98776.59
2023-02-27T08:28:30.019Z,98779.38
2023-02-27T08:29:33.100Z,98776.50
2023-02-27T08:30:34.890Z,98778.84
2023-02-27T08:31:36.972Z,98786.84
2023-02-27T08:32:38.942Z,98781.16
2023-02-27T08:33:40.849Z,98781.16
2023-02-27T08:34:42.602Z,98780.31
2023-02-27T08:35:44.471Z,98771.75
2023-02-27T08:36:46.595Z,98777.13
2023-02-27T08:37:49.860Z,98784.59
2023-02-27T08:38:51.619Z,98780.91
2023-02-27T08:39:53.315Z,98774.97
2023-02-27T08:40:55.183Z,98776.03
2023-02-27T08:41:56.906Z,98773.91
2023-02-27T08:42:58.597Z,98782.06
2023-02-27T08:44:00.335Z,98784.88
2023-02-27T08:45:02.886Z,98789.16
2023-02-27T08:46:04.818Z,98793.72
2023-02-27T08:47:06.606Z,98784.78
2023-02-27T08:48:08.646Z,98788.22
2023-02-27T08:49:10.469Z,98785.78
2023-02-27T08:50:15.657Z,98792.97
2023-02-27T08:51:17.430Z,98788.78
2023-02-27T08:52:19.201Z,98789.66
2023-02-27T08:53:20.912Z,98789.91
2023-02-27T08:54:22.660Z,98794.47
2023-02-27T08:55:24.462Z,98804.09
2023-02-27T08:56:26.964Z,98797.91
2023-02-27T08:57:28.986Z,98787.41
2023-02-27T08:58:30.747Z,98796.75
2023-02-27T08:59:32.541Z,98794.28
2023-02-27T09:00:34.299Z,98801.47
2023-02-27T09:01:36.067Z,98802.50
2023-02-27T09:02:37.820Z,98800.25
2023-02-27T09:03:39.557Z,98803.09
2023-02-27T09:04:41.239Z,98799.56
2023-02-27T09:05:43.543Z,98808.09
2023-02-27T09:06:45.969Z,98804.97
2023-02-27T09:07:47.644Z,98812.53
2023-02-27T09:08:49.354Z,98815.72
2023-02-27T09:09:51.087Z,98818.47
2023-02-27T09:10:57.216Z,98813.56
2023-02-27T09:11:58.954Z,98822.72
2023-02-27T09:13:01.641Z,98821.41
2023-02-27T09:14:03.381Z,98816.44
2023-02-27T09:15:06.546Z,98814.81
2023-02-27T09:16:08.527Z,98819.59
2023-02-27T09:17:10.284Z,98821.22
2023-02-27T09:18:12.353Z,98812.09
2023-02-27T09:19:15.740Z,98819.59
2023-02-27T09:20:17.750Z,98820.38
2023-02-27T09:21:20.536Z,98812.06
2023-02-27T09:22:22.332Z,98825.41
2023-02-27T09:23:24.067Z,98827.78
2023-02-27T09:24:25.836Z,98822.66
2023-02-27T09:25:28.728Z,98813.13
2023-02-27T09:26:43.461Z,98817.91
2023-02-27T09:27:47.509Z,98820.53
2023-02-27T09:28:49.725Z,98812.47
2023-02-27T09:29:55.641Z,98815.38
2023-02-27T09:31:05.969Z,98823.97
2023-02-27T09:32:08.212Z,98817.59
2023-02-27T09:33:09.980Z,98819.50
2023-02-27T09:34:11.717Z,98792.22
2023-02-27T09:35:15.950Z,98821.69
2023-02-27T09:36:17.860Z,98808.66
2023-02-27T09:37:20.140Z,98813.69
2023-02-27T09:38:21.854Z,98806.81
2023-02-27T09:39:23.613Z,98817.78
2023-02-27T09:40:29.130Z,98808.84
2023-02-27T09:41:33.505Z,98816.38
2023-02-27T09:42:45.655Z,98820.13
2023-02-27T09:43:49.613Z,98819.72
2023-02-27T09:44:57.777Z,98818.97
2023-02-27T09:46:01.379Z,98816.81
2023-02-27T09:47:11.118Z,98822.47
2023-02-27T09:48:34.054Z,98815.50
2023-02-27T09:49:49.690Z,98811.22
2023-02-27T09:50:52.800Z,98816.63
2023-02-27T09:51:54.584Z,98807.25
2023-02-27T09:52:57.467Z,98808.31
2023-02-27T09:54:01.694Z,98814.69
2023-02-27T09:55:11.687Z,98816.28
2023-02-27T09:56:29.468Z,98813.81
2023-02-27T09:57:41.185Z,98811.34
2023-02-27T09:59:16.735Z,98808.13
2023-02-27T10:00:24.252Z,98808.72
2023-02-27T10:01:32.854Z,98812.81
2023-02-27T10:03:03.287Z,98801.78
2023-02-27T10:04:33.546Z,98791.88
2023-02-27T10:06:14.630Z,98807.38
2023-02-27T10:08:02.668Z,98807.22
2023-02-27T10:09:16.320Z,98803.16
2023-02-27T10:10:35.905Z,98804.25
2023-02-27T10:12:14.561Z,98805.16
2023-02-27T10:13:42.959Z,98809.34
2023-02-27T10:14:57.699Z,98798.91
2023-02-27T10:16:00.441Z,98801.66
2023-02-27T10:17:06.534Z,98814.94
2023-02-27T10:18:25.376Z,98815.25
2023-02-27T10:19:34.250Z,98809.94
2023-02-27T10:20:41.955Z,98806.19
2023-02-27T10:21:48.980Z,98813.41
2023-02-27T10:22:53.446Z,98810.47
2023-02-27T10:24:02.068Z,98806.72
2023-02-27T10:25:25.003Z,98804.84
2023-02-27T10:26:39.653Z,98806.41
2023-02-27T10:27:45.775Z,98799.97
2023-02-27T10:28:47.740Z,98798.84
2023-02-27T10:29:50.314Z,98804.53
2023-02-27T10:30:56.037Z,98805.34
2023-02-27T10:32:06.224Z,98796.78
2023-02-27T10:33:28.119Z,98808.06
2023-02-27T10:34:31.555Z,98786.09
2023-02-27T10:35:39.557Z,98793.56
2023-02-27T10:36:41.382Z,98792.22
2023-02-27T10:37:49.784Z,98792.22
2023-02-27T10:38:56.090Z,98790.94
2023-02-27T10:40:04.536Z,98783.97
2023-02-27T10:41:10.291Z,98795.28
2023-02-27T10:42:13.784Z,98801.16
2023-02-27T10:43:19.318Z,98793.66
2023-02-27T10:44:21.457Z,98789.34
2023-02-27T10:45:23.802Z,98791.75
2023-02-27T10:46:29.549Z,98787.16
2023-02-27T10:47:31.553Z,98773.78
2023-02-27T10:48:33.549Z,98777.50
2023-02-27T10:49:37.835Z,98776.41
2023-02-27T10:50:43.209Z,98772.16
2023-02-27T10:51:47.126Z,98774.31
2023-02-27T10:52:55.173Z,98779.13
2023-02-27T10:54:14.869Z,98780.13
2023-02-27T10:55:20.304Z,98775.47
2023-02-27T10:56:28.643Z,98770.09
2023-02-27T10:57:36.815Z,98775.97
2023-02-27T10:58:38.608Z,98770.38
2023-02-27T10:59:41.869Z,98773.66
2023-02-27T11:00:53.408Z,98770.75
2023-02-27T11:01:57.197Z,98773.75
2023-02-27T11:02:59.808Z,98764.69
2023-02-27T11:04:01.532Z,98768.94
2023-02-27T11:05:04.596Z,98766.25
2023-02-27T11:06:19.867Z,98751.00
2023-02-27T11:07:38.899Z,98755.59
2023-02-27T11:08:40.654Z,98760.41
2023-02-27T11:09:43.371Z,98754.28
2023-02-27T11:11:06.908Z,98764.72
2023-02-27T11:12:11.401Z,98755.03
2023-02-27T11:13:24.787Z,98744.53
2023-02-27T11:14:28.480Z,98753.41
2023-02-27T11:15:36.533Z,98748.84
2023-02-27T11:16:52.525Z,98748.84
2023-02-27T11:17:55.238Z,98749.66
2023-02-27T11:18:57.968Z,98748.03
2023-02-27T11:20:02.365Z,98741.34
2023-02-27T11:21:23.186Z,98733.81
2023-02-27T11:22:29.948Z,98742.72
2023-02-27T11:23:34.020Z,98743.00
2023-02-27T11:24:35.809Z,98743.81
2023-02-27T11:25:37.536Z,98732.63
2023-02-27T11:26:53.349Z,98743.59
2023-02-27T11:28:22.880Z,98735.78
2023-02-27T11:29:25.071Z,98741.63
2023-02-27T11:30:29.259Z,98743.50
2023-02-27T11:31:32.948Z,98740.81
2023-02-27T11:32:49.013Z,98731.09
2023-02-27T11:33:57.581Z,98732.97
2023-02-27T11:34:59.454Z,98732.72
2023-02-27T11:36:02.459Z,98738.38
2023-02-27T11:37:07.489Z,98735.75
2023-02-27T11:38:19.508Z,98730.94
2023-02-27T11:39:32.046Z,98729.59
2023-02-27T11:40:39.539Z,98726.41
2023-02-27T11:41:44.994Z,98734.16
2023-02-27T11:42:53.644Z,98741.66
2023-02-27T11:43:57.672Z,98743.84
2023-02-27T11:45:07.564Z,98740.34
2023-02-27T11:46:45.207Z,98746.81
2023-02-27T11:47:40.691Z,98748.13
2023-02-27T11:49:08.386Z,98738.75
2023-02-27T11:50:16.381Z,98748.13
2023-02-27T11:51:27.409Z,98747.03
2023-02-27T11:52:32.377Z,98748.63
2023-02-27T11:54:07.941Z,98739.00
2023-02-27T11:55:17.958Z,98737.91
2023-02-27T11:56:26.697Z,98740.53
2023-02-27T11:57:34.694Z,98736.25
2023-02-27T11:58:44.933Z,98726.34
2023-02-27T11:59:47.953Z,98735.19
2023-02-27T12:00:57.441Z,98729.25
2023-02-27T12:02:11.442Z,98733.81
2023-02-27T12:03:25.218Z,98735.16
2023-02-27T12:04:39.987Z,98719.91
2023-02-27T12:05:48.183Z,98731.84
2023-02-27T12:07:07.758Z,98731.84
2023-02-27T12:08:42.290Z,98734.41
2023-02-27T12:10:11.181Z,98732.50
2023-02-27T12:11:30.240Z,98736.78
2023-02-27T12:12:44.298Z,98730.38
2023-02-27T12:13:51.444Z,98733.56
2023-02-27T12:15:01.178Z,98725.59
2023-02-27T12:16:24.730Z,98729.09
2023-02-27T12:17:35.069Z,98732.59
2023-02-27T12:18:57.973Z,98725.13
2023-02-27T12:20:21.214Z,98732.38
2023-02-27T12:21:28.627Z,98733.47
2023-02-27T12:22:35.808Z,98739.34
2023-02-27T12:23:56.272Z,98736.41
2023-02-27T12:25:04.575Z,98739.66
2023-02-27T12:26:08.537Z,98734.88
2023-02-27T12:27:19.253Z,98741.59
2023-02-27T12:28:51.344Z,98734.91
2023-02-27T12:30:24.428Z,98734.13
2023-02-27T12:31:35.568Z,98733.09
2023-02-27T12:32:43.793Z,98730.97
2023-02-27T12:34:02.553Z,98736.31
2023-02-27T12:35:17.429Z,98729.59
2023-02-27T12:36:19.192Z,98734.41
2023-02-27T12:37:26.520Z,98730.13
2023-02-27T12:38:29.106Z,98729.03
2023-02-27T12:39:32.277Z,98730.34
2023-02-27T12:40:40.116Z,98729.78
2023-02-27T12:42:03.967Z,98723.31
2023-02-27T12:43:39.352Z,98731.34
2023-02-27T12:44:42.012Z,98731.78
2023-02-27T12:45:56.801Z,98730.16
2023-02-27T12:47:18.522Z,98732.28
2023-02-27T12:48:55.301Z,98724.59
2023-02-27T12:50:03.037Z,98729.19
2023-02-27T12:51:21.402Z,98721.13
2023-02-27T12:52:56.886Z,98729.97
2023-02-27T12:54:16.688Z,98720.63
2023-02-27T12:55:27.092Z,98718.16
2023-02-27T12:56:48.974Z,98724.34
2023-02-27T12:58:22.331Z,98720.13
2023-02-27T12:59:36.018Z,98726.03
2023-02-27T13:00:50.690Z,98719.09
2023-02-27T13:02:04.008Z,98719.13
2023-02-27T13:03:15.291Z,98721.28
2023-02-27T13:04:29.297Z,98725.81
2023-02-27T13:05:51.769Z,98723.41
2023-02-27T13:07:08.671Z,98697.19
2023-02-27T13:08:44.528Z,98725.31
2023-02-27T13:10:01.574Z,98715.41
2023-02-27T13:11:21.833Z,98715.09
2023-02-27T13:12:44.491Z,98715.94
2023-02-27T13:13:56.642Z,98707.91
2023-02-27T13:15:04.545Z,98715.97
2023-02-27T13:16:12.611Z,98716.78
2023-02-27T13:17:37.558Z,98716.53
2023-02-27T13:18:45.770Z,98709.81
2023-02-27T13:19:50.950Z,98724.53